sensor_id;sensor_type;location;lat;lon;timestamp;pressure;altitude;pressure_sealevel;temperature
15079;BMP180;6932;51.438;5.470;2023-02-05T00:01:16;103315.00;;;13.90
15079;BMP180;6932;51.438;5.470;2023-02-05T00:03:42;103294.00;;;13.90
15079;BMP180;6932;51.438;5.470;2023-02-05T00:06:07;103298.00;;;13.90
15079;BMP180;6932;51.438;5.470;2023-02-05T00:08:34;103296.00;;;13.90
15079;BMP180;6932;51.438;5.470;2023-02-05T00:11:00;103291.00;;;13.90
15079;BMP180;6932;51.438;5.470;2023-02-05T00:13:35;103285.00;;;13.80
15079;BMP180;6932;51.438;5.470;2023-02-05T00:16:15;103295.00;;;13.80
15079;BMP180;6932;51.438;5.470;2023-02-05T00:18:41;103289.00;;;13.80
15079;BMP180;6932;51.438;5.470;2023-02-05T00:21:08;103281.00;;;13.80
15079;BMP180;6932;51.438;5.470;2023-02-05T00:23:35;103280.00;;;13.80
15079;BMP180;6932;51.438;5.470;2023-02-05T00:26:03;103273.00;;;13.80
15079;BMP180;6932;51.438;5.470;2023-02-05T00:28:34;103268.00;;;13.80
15079;BMP180;6932;51.438;5.470;2023-02-05T00:31:06;103262.00;;;13.80
15079;BMP180;6932;51.438;5.470;2023-02-05T00:33:32;103259.00;;;13.80
15079;BMP180;6932;51.438;5.470;2023-02-05T00:35:58;103253.00;;;13.80
15079;BMP180;6932;51.438;5.470;2023-02-05T00:38:24;103237.00;;;13.80
15079;BMP180;6932;51.438;5.470;2023-02-05T00:40:50;103246.00;;;13.80
15079;BMP180;6932;51.438;5.470;2023-02-05T00:43:15;103237.00;;;13.80
15079;BMP180;6932;51.438;5.470;2023-02-05T00:45:41;103237.00;;;13.80
15079;BMP180;6932;51.438;5.470;2023-02-05T00:48:07;103238.00;;;13.80
15079;BMP180;6932;51.438;5.470;2023-02-05T00:50:34;103239.00;;;13.80
15079;BMP180;6932;51.438;5.470;2023-02-05T00:53:00;103240.00;;;13.80
15079;BMP180;6932;51.438;5.470;2023-02-05T00:55:26;103239.00;;;13.80
15079;BMP180;6932;51.438;5.470;2023-02-05T00:57:52;103240.00;;;13.80
15079;BMP180;6932;51.438;5.470;2023-02-05T01:00:18;103228.00;;;13.80
15079;BMP180;6932;51.438;5.470;2023-02-05T01:02:44;103244.00;;;13.80
15079;BMP180;6932;51.438;5.470;2023-02-05T01:05:10;103235.00;;;13.80
15079;BMP180;6932;51.438;5.470;2023-02-05T01:07:36;103234.00;;;13.80
15079;BMP180;6932;51.438;5.470;2023-02-05T01:10:03;103236.00;;;13.80
15079;BMP180;6932;51.438;5.470;2023-02-05T01:12:29;103239.00;;;13.80
15079;BMP180;6932;51.438;5.470;2023-02-05T01:14:59;103232.00;;;13.80
15079;BMP180;6932;51.438;5.470;2023-02-05T01:17:25;103235.00;;;13.80
15079;BMP180;6932;51.438;5.470;2023-02-05T01:19:51;103233.00;;;13.80
15079;BMP180;6932;51.438;5.470;2023-02-05T01:22:17;103240.00;;;13.80
15079;BMP180;6932;51.438;5.470;2023-02-05T01:24:43;103234.00;;;13.80
15079;BMP180;6932;51.438;5.470;2023-02-05T01:27:09;103229.00;;;13.80
15079;BMP180;6932;51.438;5.470;2023-02-05T01:29:34;103240.00;;;13.80
15079;BMP180;6932;51.438;5.470;2023-02-05T01:32:00;103240.00;;;13.80
15079;BMP180;6932;51.438;5.470;2023-02-05T01:34:26;103237.00;;;13.80
15079;BMP180;6932;51.438;5.470;2023-02-05T01:36:52;103240.00;;;13.80
15079;BMP180;6932;51.438;5.470;2023-02-05T01:39:17;103247.00;;;13.80
15079;BMP180;6932;51.438;5.470;2023-02-05T01:41:43;103242.00;;;13.80
15079;BMP180;6932;51.438;5.470;2023-02-05T01:46:42;103244.00;;;13.80
15079;BMP180;6932;51.438;5.470;2023-02-05T01:49:18;103242.00;;;13.80
15079;BMP180;6932;51.438;5.470;2023-02-05T01:51:47;103238.00;;;13.80
15079;BMP180;6932;51.438;5.470;2023-02-05T01:54:17;103239.00;;;13.70
15079;BMP180;6932;51.438;5.470;2023-02-05T01:57:06;103246.00;;;13.80
15079;BMP180;6932;51.438;5.470;2023-02-05T01:59:38;103250.00;;;13.70
15079;BMP180;6932;51.438;5.470;2023-02-05T02:02:05;103249.00;;;13.70
15079;BMP180;6932;51.438;5.470;2023-02-05T02:04:53;103256.00;;;13.70
15079;BMP180;6932;51.438;5.470;2023-02-05T02:07:23;103249.00;;;13.70
15079;BMP180;6932;51.438;5.470;2023-02-05T02:09:50;103248.00;;;13.70
15079;BMP180;6932;51.438;5.470;2023-02-05T02:12:22;103241.00;;;13.70
15079;BMP180;6932;51.438;5.470;2023-02-05T02:14:54;103241.00;;;13.70
15079;BMP180;6932;51.438;5.470;2023-02-05T02:17:24;103236.00;;;13.70
15079;BMP180;6932;51.438;5.470;2023-02-05T02:20:01;103236.00;;;13.70
15079;BMP180;6932;51.438;5.470;2023-02-05T02:28:44;103240.00;;;13.60
15079;BMP180;6932;51.438;5.470;2023-02-05T02:34:15;103241.00;;;13.60
15079;BMP180;6932;51.438;5.470;2023-02-05T02:37:02;103245.00;;;13.60
15079;BMP180;6932;51.438;5.470;2023-02-05T02:39:39;103220.00;;;13.60
15079;BMP180;6932;51.438;5.470;2023-02-05T02:42:15;103212.00;;;13.60
15079;BMP180;6932;51.438;5.470;2023-02-05T02:44:59;103219.00;;;13.60
15079;BMP180;6932;51.438;5.470;2023-02-05T02:47:35;103210.00;;;13.60
15079;BMP180;6932;51.438;5.470;2023-02-05T02:50:16;103218.00;;;13.60
15079;BMP180;6932;51.438;5.470;2023-02-05T02:52:45;103206.00;;;13.60
15079;BMP180;6932;51.438;5.470;2023-02-05T02:55:14;103206.00;;;13.60
15079;BMP180;6932;51.438;5.470;2023-02-05T02:57:44;103200.00;;;13.60
15079;BMP180;6932;51.438;5.470;2023-02-05T03:00:16;103207.00;;;13.60
15079;BMP180;6932;51.438;5.470;2023-02-05T03:02:46;103218.00;;;13.60
15079;BMP180;6932;51.438;5.470;2023-02-05T03:05:21;103209.00;;;13.60
15079;BMP180;6932;51.438;5.470;2023-02-05T03:07:57;103203.00;;;13.60
15079;BMP180;6932;51.438;5.470;2023-02-05T03:10:50;103202.00;;;13.50
15079;BMP180;6932;51.438;5.470;2023-02-05T03:13:18;103199.00;;;13.50
15079;BMP180;6932;51.438;5.470;2023-02-05T03:15:45;103202.00;;;13.50
15079;BMP180;6932;51.438;5.470;2023-02-05T03:18:14;103194.00;;;13.50
15079;BMP180;6932;51.438;5.470;2023-02-05T03:20:52;103189.00;;;13.50
15079;BMP180;6932;51.438;5.470;2023-02-05T03:23:18;103189.00;;;13.50
15079;BMP180;6932;51.438;5.470;2023-02-05T03:25:44;103190.00;;;13.40
15079;BMP180;6932;51.438;5.470;2023-02-05T03:28:11;103191.00;;;13.40
15079;BMP180;6932;51.438;5.470;2023-02-05T03:31:16;103196.00;;;13.40
15079;BMP180;6932;51.438;5.470;2023-02-05T03:36:46;103194.00;;;13.40
15079;BMP180;6932;51.438;5.470;2023-02-05T03:39:58;103183.00;;;13.40
15079;BMP180;6932;51.438;5.470;2023-02-05T03:42:41;103180.00;;;13.40
15079;BMP180;6932;51.438;5.470;2023-02-05T03:51:19;103206.00;;;13.30
15079;BMP180;6932;51.438;5.470;2023-02-05T03:54:12;103205.00;;;13.30
15079;BMP180;6932;51.438;5.470;2023-02-05T03:56:59;103218.00;;;13.30
15079;BMP180;6932;51.438;5.470;2023-02-05T03:59:32;103204.00;;;13.30
15079;BMP180;6932;51.438;5.470;2023-02-05T04:01:58;103199.00;;;13.30
15079;BMP180;6932;51.438;5.470;2023-02-05T04:04:24;103197.00;;;13.30
15079;BMP180;6932;51.438;5.470;2023-02-05T04:06:52;103201.00;;;13.30
15079;BMP180;6932;51.438;5.470;2023-02-05T04:09:19;103215.00;;;13.30
15079;BMP180;6932;51.438;5.470;2023-02-05T04:11:44;103214.00;;;13.30
15079;BMP180;6932;51.438;5.470;2023-02-05T04:14:10;103214.00;;;13.30
15079;BMP180;6932;51.438;5.470;2023-02-05T04:16:36;103217.00;;;13.30
15079;BMP180;6932;51.438;5.470;2023-02-05T04:19:02;103226.00;;;13.30
15079;BMP180;6932;51.438;5.470;2023-02-05T04:21:27;103226.00;;;13.30
15079;BMP180;6932;51.438;5.470;2023-02-05T04:23:53;103232.00;;;13.30
15079;BMP180;6932;51.438;5.470;2023-02-05T04:26:19;103239.00;;;13.30
15079;BMP180;6932;51.438;5.470;2023-02-05T04:28:45;103235.00;;;13.30
15079;BMP180;6932;51.438;5.470;2023-02-05T04:31:11;103231.00;;;13.30
15079;BMP180;6932;51.438;5.470;2023-02-05T04:33:39;103228.00;;;13.30
15079;BMP180;6932;51.438;5.470;2023-02-05T04:36:06;103224.00;;;13.30
15079;BMP180;6932;51.438;5.470;2023-02-05T04:38:33;103220.00;;;13.30
15079;BMP180;6932;51.438;5.470;2023-02-05T04:40:59;103213.00;;;13.30
15079;BMP180;6932;51.438;5.470;2023-02-05T04:43:25;103215.00;;;13.30
15079;BMP180;6932;51.438;5.470;2023-02-05T04:45:51;103217.00;;;13.20
15079;BMP180;6932;51.438;5.470;2023-02-05T04:48:17;103218.00;;;13.20
15079;BMP180;6932;51.438;5.470;2023-02-05T04:50:42;103216.00;;;13.20
15079;BMP180;6932;51.438;5.470;2023-02-05T04:53:08;103214.00;;;13.20
15079;BMP180;6932;51.438;5.470;2023-02-05T04:55:34;103219.00;;;13.20
15079;BMP180;6932;51.438;5.470;2023-02-05T04:58:00;103220.00;;;13.20
15079;BMP180;6932;51.438;5.470;2023-02-05T05:00:26;103210.00;;;13.20
15079;BMP180;6932;51.438;5.470;2023-02-05T05:02:52;103210.00;;;13.20
15079;BMP180;6932;51.438;5.470;2023-02-05T05:05:18;103213.00;;;13.20
15079;BMP180;6932;51.438;5.470;2023-02-05T05:07:44;103219.00;;;13.20
15079;BMP180;6932;51.438;5.470;2023-02-05T05:10:12;103214.00;;;13.20
15079;BMP180;6932;51.438;5.470;2023-02-05T05:12:38;103219.00;;;13.20
15079;BMP180;6932;51.438;5.470;2023-02-05T05:15:05;103209.00;;;13.20
15079;BMP180;6932;51.438;5.470;2023-02-05T05:17:33;103205.00;;;13.20
15079;BMP180;6932;51.438;5.470;2023-02-05T05:19:59;103219.00;;;13.20
15079;BMP180;6932;51.438;5.470;2023-02-05T05:22:25;103208.00;;;13.20
15079;BMP180;6932;51.438;5.470;2023-02-05T05:24:50;103206.00;;;13.20
15079;BMP180;6932;51.438;5.470;2023-02-05T05:27:16;103197.00;;;13.20
15079;BMP180;6932;51.438;5.470;2023-02-05T05:29:44;103190.00;;;13.20
15079;BMP180;6932;51.438;5.470;2023-02-05T05:32:12;103195.00;;;13.20
15079;BMP180;6932;51.438;5.470;2023-02-05T05:34:38;103202.00;;;13.20
15079;BMP180;6932;51.438;5.470;2023-02-05T05:37:03;103192.00;;;13.20
15079;BMP180;6932;51.438;5.470;2023-02-05T05:39:29;103194.00;;;13.20
15079;BMP180;6932;51.438;5.470;2023-02-05T05:42:14;103194.00;;;13.20
15079;BMP180;6932;51.438;5.470;2023-02-05T05:44:58;103195.00;;;13.20
15079;BMP180;6932;51.438;5.470;2023-02-05T05:47:24;103193.00;;;13.20
15079;BMP180;6932;51.438;5.470;2023-02-05T05:49:50;103189.00;;;13.20
15079;BMP180;6932;51.438;5.470;2023-02-05T05:52:15;103188.00;;;13.20
15079;BMP180;6932;51.438;5.470;2023-02-05T05:54:41;103186.00;;;13.20
15079;BMP180;6932;51.438;5.470;2023-02-05T05:57:07;103190.00;;;13.20
15079;BMP180;6932;51.438;5.470;2023-02-05T05:59:33;103192.00;;;13.20
15079;BMP180;6932;51.438;5.470;2023-02-05T06:02:03;103188.00;;;13.20
15079;BMP180;6932;51.438;5.470;2023-02-05T06:04:29;103178.00;;;13.20
15079;BMP180;6932;51.438;5.470;2023-02-05T06:06:55;103181.00;;;13.20
15079;BMP180;6932;51.438;5.470;2023-02-05T06:09:21;103182.00;;;13.20
15079;BMP180;6932;51.438;5.470;2023-02-05T06:11:48;103172.00;;;13.20
15079;BMP180;6932;51.438;5.470;2023-02-05T06:14:15;103182.00;;;13.20
15079;BMP180;6932;51.438;5.470;2023-02-05T06:16:41;103176.00;;;13.10
15079;BMP180;6932;51.438;5.470;2023-02-05T06:19:07;103174.00;;;13.10
15079;BMP180;6932;51.438;5.470;2023-02-05T06:21:33;103165.00;;;13.10
15079;BMP180;6932;51.438;5.470;2023-02-05T06:23:59;103170.00;;;13.10
15079;BMP180;6932;51.438;5.470;2023-02-05T06:26:24;103170.00;;;13.10
15079;BMP180;6932;51.438;5.470;2023-02-05T06:28:50;103179.00;;;13.10
15079;BMP180;6932;51.438;5.470;2023-02-05T06:31:16;103182.00;;;13.10
15079;BMP180;6932;51.438;5.470;2023-02-05T06:33:43;103181.00;;;13.10
15079;BMP180;6932;51.438;5.470;2023-02-05T06:36:08;103188.00;;;13.10
15079;BMP180;6932;51.438;5.470;2023-02-05T06:38:34;103194.00;;;13.10
15079;BMP180;6932;51.438;5.470;2023-02-05T06:41:00;103189.00;;;13.10
15079;BMP180;6932;51.438;5.470;2023-02-05T06:43:26;103193.00;;;13.10
15079;BMP180;6932;51.438;5.470;2023-02-05T06:45:52;103192.00;;;13.00
15079;BMP180;6932;51.438;5.470;2023-02-05T06:48:18;103198.00;;;13.00
15079;BMP180;6932;51.438;5.470;2023-02-05T06:50:43;103200.00;;;13.00
15079;BMP180;6932;51.438;5.470;2023-02-05T06:53:09;103216.00;;;13.00
15079;BMP180;6932;51.438;5.470;2023-02-05T06:55:37;103216.00;;;13.10
15079;BMP180;6932;51.438;5.470;2023-02-05T06:58:03;103220.00;;;13.00
15079;BMP180;6932;51.438;5.470;2023-02-05T07:00:29;103240.00;;;13.00
15079;BMP180;6932;51.438;5.470;2023-02-05T07:02:55;103244.00;;;13.00
15079;BMP180;6932;51.438;5.470;2023-02-05T07:05:21;103248.00;;;13.00
15079;BMP180;6932;51.438;5.470;2023-02-05T07:07:47;103258.00;;;13.00
15079;BMP180;6932;51.438;5.470;2023-02-05T07:10:13;103270.00;;;12.90
15079;BMP180;6932;51.438;5.470;2023-02-05T07:12:39;103280.00;;;12.90
15079;BMP180;6932;51.438;5.470;2023-02-05T07:15:05;103286.00;;;12.90
15079;BMP180;6932;51.438;5.470;2023-02-05T07:17:31;103297.00;;;12.80
15079;BMP180;6932;51.438;5.470;2023-02-05T07:19:57;103300.00;;;12.80
15079;BMP180;6932;51.438;5.470;2023-02-05T07:22:23;103305.00;;;12.80
15079;BMP180;6932;51.438;5.470;2023-02-05T07:24:49;103317.00;;;12.70
15079;BMP180;6932;51.438;5.470;2023-02-05T07:27:15;103322.00;;;12.70
15079;BMP180;6932;51.438;5.470;2023-02-05T07:29:42;103325.00;;;12.70
15079;BMP180;6932;51.438;5.470;2023-02-05T07:32:08;103345.00;;;12.70
15079;BMP180;6932;51.438;5.470;2023-02-05T07:34:34;103337.00;;;12.70
15079;BMP180;6932;51.438;5.470;2023-02-05T07:36:59;103338.00;;;12.60
15079;BMP180;6932;51.438;5.470;2023-02-05T07:39:25;103337.00;;;12.60
15079;BMP180;6932;51.438;5.470;2023-02-05T07:41:53;103340.00;;;12.60
15079;BMP180;6932;51.438;5.470;2023-02-05T07:44:20;103365.00;;;12.60
15079;BMP180;6932;51.438;5.470;2023-02-05T07:46:46;103362.00;;;12.60
15079;BMP180;6932;51.438;5.470;2023-02-05T07:49:14;103364.00;;;12.60
15079;BMP180;6932;51.438;5.470;2023-02-05T07:51:40;103376.00;;;12.60
15079;BMP180;6932;51.438;5.470;2023-02-05T07:54:07;103376.00;;;12.60
15079;BMP180;6932;51.438;5.470;2023-02-05T07:56:33;103388.00;;;12.60
15079;BMP180;6932;51.438;5.470;2023-02-05T07:58:59;103383.00;;;12.60
15079;BMP180;6932;51.438;5.470;2023-02-05T08:01:25;103387.00;;;12.60
15079;BMP180;6932;51.438;5.470;2023-02-05T08:03:51;103393.00;;;12.60
15079;BMP180;6932;51.438;5.470;2023-02-05T08:06:17;103386.00;;;12.60
15079;BMP180;6932;51.438;5.470;2023-02-05T08:08:43;103403.00;;;12.60
15079;BMP180;6932;51.438;5.470;2023-02-05T08:11:15;103394.00;;;12.60
15079;BMP180;6932;51.438;5.470;2023-02-05T08:13:43;103404.00;;;12.60
15079;BMP180;6932;51.438;5.470;2023-02-05T08:16:10;103396.00;;;12.60
15079;BMP180;6932;51.438;5.470;2023-02-05T08:18:36;103399.00;;;12.60
15079;BMP180;6932;51.438;5.470;2023-02-05T08:21:02;103388.00;;;12.60
15079;BMP180;6932;51.438;5.470;2023-02-05T08:23:28;103398.00;;;12.60
15079;BMP180;6932;51.438;5.470;2023-02-05T08:25:55;103402.00;;;12.60
15079;BMP180;6932;51.438;5.470;2023-02-05T08:28:23;103408.00;;;12.60
15079;BMP180;6932;51.438;5.470;2023-02-05T08:30:49;103396.00;;;12.60
15079;BMP180;6932;51.438;5.470;2023-02-05T08:33:15;103386.00;;;12.60
15079;BMP180;6932;51.438;5.470;2023-02-05T08:35:41;103416.00;;;12.60
15079;BMP180;6932;51.438;5.470;2023-02-05T08:38:07;103426.00;;;12.60
15079;BMP180;6932;51.438;5.470;2023-02-05T08:40:34;103409.00;;;12.70
15079;BMP180;6932;51.438;5.470;2023-02-05T08:42:59;103416.00;;;12.70
15079;BMP180;6932;51.438;5.470;2023-02-05T08:45:27;103415.00;;;12.70
15079;BMP180;6932;51.438;5.470;2023-02-05T08:47:53;103426.00;;;12.70
15079;BMP180;6932;51.438;5.470;2023-02-05T08:50:20;103421.00;;;12.70
15079;BMP180;6932;51.438;5.470;2023-02-05T08:52:47;103416.00;;;12.80
15079;BMP180;6932;51.438;5.470;2023-02-05T08:55:14;103425.00;;;12.80
15079;BMP180;6932;51.438;5.470;2023-02-05T08:57:42;103431.00;;;12.80
15079;BMP180;6932;51.438;5.470;2023-02-05T09:00:09;103429.00;;;12.80
15079;BMP180;6932;51.438;5.470;2023-02-05T09:02:35;103426.00;;;12.80
15079;BMP180;6932;51.438;5.470;2023-02-05T09:05:01;103435.00;;;12.90
15079;BMP180;6932;51.438;5.470;2023-02-05T09:07:27;103432.00;;;12.90
15079;BMP180;6932;51.438;5.470;2023-02-05T09:09:52;103415.00;;;12.90
15079;BMP180;6932;51.438;5.470;2023-02-05T09:12:18;103433.00;;;12.90
15079;BMP180;6932;51.438;5.470;2023-02-05T09:14:44;103428.00;;;12.90
15079;BMP180;6932;51.438;5.470;2023-02-05T09:17:10;103424.00;;;13.00
15079;BMP180;6932;51.438;5.470;2023-02-05T09:19:40;103440.00;;;13.00
15079;BMP180;6932;51.438;5.470;2023-02-05T09:22:07;103437.00;;;13.00
15079;BMP180;6932;51.438;5.470;2023-02-05T09:24:35;103438.00;;;13.00
15079;BMP180;6932;51.438;5.470;2023-02-05T09:27:01;103442.00;;;13.00
15079;BMP180;6932;51.438;5.470;2023-02-05T09:29:27;103448.00;;;13.00
15079;BMP180;6932;51.438;5.470;2023-02-05T09:31:54;103436.00;;;13.00
15079;BMP180;6932;51.438;5.470;2023-02-05T09:34:20;103441.00;;;13.00
15079;BMP180;6932;51.438;5.470;2023-02-05T09:36:46;103447.00;;;13.10
15079;BMP180;6932;51.438;5.470;2023-02-05T09:39:12;103436.00;;;13.10
15079;BMP180;6932;51.438;5.470;2023-02-05T09:50:10;103441.00;;;13.10
15079;BMP180;6932;51.438;5.470;2023-02-05T09:52:43;103440.00;;;13.10
15079;BMP180;6932;51.438;5.470;2023-02-05T09:55:20;103438.00;;;13.10
15079;BMP180;6932;51.438;5.470;2023-02-05T09:57:50;103456.00;;;13.10
15079;BMP180;6932;51.438;5.470;2023-02-05T10:00:26;103454.00;;;13.10
15079;BMP180;6932;51.438;5.470;2023-02-05T10:11:36;103451.00;;;13.10
15079;BMP180;6932;51.438;5.470;2023-02-05T10:17:04;103443.00;;;13.10
15079;BMP180;6932;51.438;5.470;2023-02-05T10:25:33;103444.00;;;13.10
15079;BMP180;6932;51.438;5.470;2023-02-05T10:28:34;103435.00;;;13.20
15079;BMP180;6932;51.438;5.470;2023-02-05T10:37:43;103418.00;;;13.20
15079;BMP180;6932;51.438;5.470;2023-02-05T10:40:21;103427.00;;;13.30
15079;BMP180;6932;51.438;5.470;2023-02-05T10:43:15;103430.00;;;13.40
15079;BMP180;6932;51.438;5.470;2023-02-05T10:45:43;103415.00;;;13.40
15079;BMP180;6932;51.438;5.470;2023-02-05T10:51:04;103435.00;;;13.50
15079;BMP180;6932;51.438;5.470;2023-02-05T10:53:32;103432.00;;;13.60
15079;BMP180;6932;51.438;5.470;2023-02-05T10:56:01;103428.00;;;13.60
15079;BMP180;6932;51.438;5.470;2023-02-05T10:58:57;103421.00;;;13.70
15079;BMP180;6932;51.438;5.470;2023-02-05T11:01:36;103434.00;;;13.80
15079;BMP180;6932;51.438;5.470;2023-02-05T11:04:16;103429.00;;;13.80
15079;BMP180;6932;51.438;5.470;2023-02-05T11:06:48;103440.00;;;13.90
15079;BMP180;6932;51.438;5.470;2023-02-05T11:12:27;103449.00;;;14.00
15079;BMP180;6932;51.438;5.470;2023-02-05T11:15:00;103447.00;;;14.00
15079;BMP180;6932;51.438;5.470;2023-02-05T11:17:34;103461.00;;;14.00
15079;BMP180;6932;51.438;5.470;2023-02-05T11:22:42;103446.00;;;14.00
15079;BMP180;6932;51.438;5.470;2023-02-05T11:25:22;103419.00;;;14.00
15079;BMP180;6932;51.438;5.470;2023-02-05T11:27:59;103463.00;;;13.90
15079;BMP180;6932;51.438;5.470;2023-02-05T11:30:34;103451.00;;;13.90
15079;BMP180;6932;51.438;5.470;2023-02-05T11:33:25;103445.00;;;13.90
15079;BMP180;6932;51.438;5.470;2023-02-05T11:36:07;103451.00;;;13.90
15079;BMP180;6932;51.438;5.470;2023-02-05T11:38:49;103445.00;;;13.90
15079;BMP180;6932;51.438;5.470;2023-02-05T11:41:42;103451.00;;;13.90
15079;BMP180;6932;51.438;5.470;2023-02-05T11:44:36;103459.00;;;13.90
15079;BMP180;6932;51.438;5.470;2023-02-05T11:47:19;103459.00;;;13.90
15079;BMP180;6932;51.438;5.470;2023-02-05T11:49:49;103458.00;;;13.90
15079;BMP180;6932;51.438;5.470;2023-02-05T11:52:31;103444.00;;;13.90
15079;BMP180;6932;51.438;5.470;2023-02-05T11:54:59;103425.00;;;13.90
15079;BMP180;6932;51.438;5.470;2023-02-05T11:57:35;103313.00;;;13.90
15079;BMP180;6932;51.438;5.470;2023-02-05T12:02:39;103339.00;;;13.60
15079;BMP180;6932;51.438;5.470;2023-02-05T12:14:05;103345.00;;;13.00
15079;BMP180;6932;51.438;5.470;2023-02-05T12:16:47;103352.00;;;12.90
15079;BMP180;6932;51.438;5.470;2023-02-05T12:19:20;103446.00;;;12.90
15079;BMP180;6932;51.438;5.470;2023-02-05T12:22:09;103438.00;;;12.80
15079;BMP180;6932;51.438;5.470;2023-02-05T12:33:11;103438.00;;;13.20
15079;BMP180;6932;51.438;5.470;2023-02-05T12:39:04;103447.00;;;13.40
15079;BMP180;6932;51.438;5.470;2023-02-05T12:47:53;103464.00;;;13.60
15079;BMP180;6932;51.438;5.470;2023-02-05T12:57:10;103458.00;;;13.70
15079;BMP180;6932;51.438;5.470;2023-02-05T12:59:49;103453.00;;;13.70
15079;BMP180;6932;51.438;5.470;2023-02-05T13:02:28;103467.00;;;13.80
15079;BMP180;6932;51.438;5.470;2023-02-05T13:05:19;103457.00;;;13.80
15079;BMP180;6932;51.438;5.470;2023-02-05T13:10:33;103457.00;;;13.80
15079;BMP180;6932;51.438;5.470;2023-02-05T13:13:06;103443.00;;;13.80
15079;BMP180;6932;51.438;5.470;2023-02-05T13:15:42;103471.00;;;13.90
15079;BMP180;6932;51.438;5.470;2023-02-05T13:18:20;103460.00;;;13.90
15079;BMP180;6932;51.438;5.470;2023-02-05T13:20:59;103461.00;;;13.90
15079;BMP180;6932;51.438;5.470;2023-02-05T13:23:46;103465.00;;;13.90
15079;BMP180;6932;51.438;5.470;2023-02-05T13:26:38;103464.00;;;13.90
15079;BMP180;6932;51.438;5.470;2023-02-05T13:29:29;103462.00;;;13.90
15079;BMP180;6932;51.438;5.470;2023-02-05T13:32:03;103475.00;;;14.00
15079;BMP180;6932;51.438;5.470;2023-02-05T13:34:31;103474.00;;;14.00
15079;BMP180;6932;51.438;5.470;2023-02-05T13:59:49;103502.00;;;14.00
15079;BMP180;6932;51.438;5.470;2023-02-05T14:02:41;103496.00;;;14.10
15079;BMP180;6932;51.438;5.470;2023-02-05T14:05:09;103494.00;;;14.00
15079;BMP180;6932;51.438;5.470;2023-02-05T14:07:45;103486.00;;;14.10
15079;BMP180;6932;51.438;5.470;2023-02-05T14:10:33;103512.00;;;14.10
15079;BMP180;6932;51.438;5.470;2023-02-05T14:13:24;103507.00;;;14.10
15079;BMP180;6932;51.438;5.470;2023-02-05T14:15:53;103498.00;;;14.00
15079;BMP180;6932;51.438;5.470;2023-02-05T14:24:22;103523.00;;;14.00
15079;BMP180;6932;51.438;5.470;2023-02-05T14:26:56;103536.00;;;14.00
15079;BMP180;6932;51.438;5.470;2023-02-05T14:29:42;103524.00;;;14.00
15079;BMP180;6932;51.438;5.470;2023-02-05T14:37:44;103511.00;;;14.00
15079;BMP180;6932;51.438;5.470;2023-02-05T14:40:30;103522.00;;;14.00
15079;BMP180;6932;51.438;5.470;2023-02-05T14:43:15;103522.00;;;14.00
15079;BMP180;6932;51.438;5.470;2023-02-05T14:45:49;103531.00;;;14.00
15079;BMP180;6932;51.438;5.470;2023-02-05T14:48:32;103527.00;;;14.00
15079;BMP180;6932;51.438;5.470;2023-02-05T14:51:07;103525.00;;;14.00
15079;BMP180;6932;51.438;5.470;2023-02-05T14:53:36;103521.00;;;14.00
15079;BMP180;6932;51.438;5.470;2023-02-05T14:56:04;103524.00;;;14.00
15079;BMP180;6932;51.438;5.470;2023-02-05T14:58:35;103524.00;;;14.00
15079;BMP180;6932;51.438;5.470;2023-02-05T15:04:03;103540.00;;;13.90
15079;BMP180;6932;51.438;5.470;2023-02-05T15:06:39;103542.00;;;13.90
15079;BMP180;6932;51.438;5.470;2023-02-05T15:09:18;103541.00;;;13.90
15079;BMP180;6932;51.438;5.470;2023-02-05T15:14:55;103547.00;;;13.90
15079;BMP180;6932;51.438;5.470;2023-02-05T15:20:13;103540.00;;;13.90
15079;BMP180;6932;51.438;5.470;2023-02-05T15:22:59;103540.00;;;13.90
15079;BMP180;6932;51.438;5.470;2023-02-05T15:25:57;103553.00;;;13.90
15079;BMP180;6932;51.438;5.470;2023-02-05T15:28:31;103558.00;;;13.90
15079;BMP180;6932;51.438;5.470;2023-02-05T15:31:16;103565.00;;;13.90
15079;BMP180;6932;51.438;5.470;2023-02-05T15:34:34;103559.00;;;13.80
15079;BMP180;6932;51.438;5.470;2023-02-05T15:42:19;103578.00;;;13.80
15079;BMP180;6932;51.438;5.470;2023-02-05T15:44:45;103580.00;;;13.80
15079;BMP180;6932;51.438;5.470;2023-02-05T15:47:19;103581.00;;;13.80
15079;BMP180;6932;51.438;5.470;2023-02-05T15:49:53;103576.00;;;13.70
15079;BMP180;6932;51.438;5.470;2023-02-05T15:52:25;103573.00;;;13.70
15079;BMP180;6932;51.438;5.470;2023-02-05T15:54:56;103572.00;;;13.70
15079;BMP180;6932;51.438;5.470;2023-02-05T15:57:28;103579.00;;;13.70
15079;BMP180;6932;51.438;5.470;2023-02-05T15:59:56;103595.00;;;13.70
15079;BMP180;6932;51.438;5.470;2023-02-05T16:02:27;103594.00;;;13.70
15079;BMP180;6932;51.438;5.470;2023-02-05T16:05:13;103596.00;;;13.70
15079;BMP180;6932;51.438;5.470;2023-02-05T16:07:43;103598.00;;;13.60
15079;BMP180;6932;51.438;5.470;2023-02-05T16:10:25;103609.00;;;13.60
15079;BMP180;6932;51.438;5.470;2023-02-05T16:15:43;103616.00;;;13.60
15079;BMP180;6932;51.438;5.470;2023-02-05T16:18:48;103617.00;;;13.60
15079;BMP180;6932;51.438;5.470;2023-02-05T16:24:02;103614.00;;;13.50
15079;BMP180;6932;51.438;5.470;2023-02-05T16:26:43;103608.00;;;13.50
15079;BMP180;6932;51.438;5.470;2023-02-05T16:29:48;103611.00;;;13.40
15079;BMP180;6932;51.438;5.470;2023-02-05T16:34:53;103630.00;;;13.40
15079;BMP180;6932;51.438;5.470;2023-02-05T16:37:24;103626.00;;;13.40
15079;BMP180;6932;51.438;5.470;2023-02-05T16:39:54;103634.00;;;13.30
15079;BMP180;6932;51.438;5.470;2023-02-05T16:42:41;103636.00;;;13.30
15079;BMP180;6932;51.438;5.470;2023-02-05T16:47:38;103628.00;;;13.20
15079;BMP180;6932;51.438;5.470;2023-02-05T16:50:36;103638.00;;;13.20
15079;BMP180;6932;51.438;5.470;2023-02-05T16:53:18;103640.00;;;13.20
15079;BMP180;6932;51.438;5.470;2023-02-05T16:55:45;103645.00;;;13.10
15079;BMP180;6932;51.438;5.470;2023-02-05T16:58:22;103661.00;;;13.10
15079;BMP180;6932;51.438;5.470;2023-02-05T17:00:58;103664.00;;;13.10
15079;BMP180;6932;51.438;5.470;2023-02-05T17:03:33;103671.00;;;13.10
15079;BMP180;6932;51.438;5.470;2023-02-05T17:06:03;103679.00;;;13.00
15079;BMP180;6932;51.438;5.470;2023-02-05T17:08:32;103677.00;;;13.00
15079;BMP180;6932;51.438;5.470;2023-02-05T17:11:04;103675.00;;;13.00
15079;BMP180;6932;51.438;5.470;2023-02-05T17:16:17;103681.00;;;13.00